createdAt,value
2023-03-20T00:00:28.424Z,-4.08
2023-03-20T00:02:58.042Z,-4.07
2023-03-20T00:05:33.564Z,-4.05
2023-03-20T00:08:03.240Z,-4.11
2023-03-20T00:10:37.943Z,-4.08
2023-03-20T00:13:08.390Z,-4.13
2023-03-20T00:15:47.471Z,-4.26
2023-03-20T00:18:19.483Z,-4.06
2023-03-20T00:20:48.618Z,-3.97
2023-03-20T00:23:18.797Z,-4.08
2023-03-20T00:25:48.687Z,-4.07
2023-03-20T00:28:35.922Z,-4.13
2023-03-20T00:31:07.688Z,-4.16
2023-03-20T00:33:37.768Z,-4.04
2023-03-20T00:36:08.106Z,-4.14
2023-03-20T00:38:38.238Z,-4.09
2023-03-20T00:41:23.663Z,-4.10
2023-03-20T00:43:55.984Z,-4.15
2023-03-20T00:46:33.177Z,-4.36
2023-03-20T00:49:05.745Z,-4.40
2023-03-20T00:51:35.966Z,-4.22
2023-03-20T00:54:15.053Z,-4.29
2023-03-20T00:56:47.329Z,-4.25
2023-03-20T00:59:25.184Z,-4.23
2023-03-20T01:01:56.771Z,-4.24
2023-03-20T01:04:35.882Z,-4.26
2023-03-20T01:07:08.727Z,-4.14
2023-03-20T01:09:43.642Z,-4.15
2023-03-20T01:12:14.151Z,-4.12
2023-03-20T01:14:43.853Z,-4.07
2023-03-20T01:17:25.452Z,-3.79
2023-03-20T01:19:56.078Z,-3.75
2023-03-20T01:22:29.675Z,-3.51
2023-03-20T01:24:59.095Z,-3.42
2023-03-20T01:27:28.257Z,-3.40
2023-03-20T01:29:57.386Z,-3.39
2023-03-20T01:32:33.754Z,-3.36
2023-03-20T01:35:08.118Z,-3.31
2023-03-20T01:37:37.254Z,-3.28
2023-03-20T01:42:55.666Z,-3.28
2023-03-20T01:45:30.243Z,-3.19
2023-03-20T01:48:06.188Z,-3.21
2023-03-20T01:50:36.925Z,-3.19
2023-03-20T01:53:17.599Z,-3.23
2023-03-20T01:55:55.795Z,-3.42
2023-03-20T01:58:30.177Z,-3.69
2023-03-20T02:01:06.006Z,-3.92
2023-03-20T02:03:37.909Z,-4.27
2023-03-20T02:06:33.979Z,-4.34
2023-03-20T02:09:35.706Z,-4.52
2023-03-20T02:12:09.884Z,-4.65
2023-03-20T02:14:40.789Z,-4.76
2023-03-20T02:17:48.885Z,-4.84
2023-03-20T02:20:36.044Z,-4.82
2023-03-20T02:23:38.258Z,-4.98
2023-03-20T02:26:30.242Z,-5.19
2023-03-20T02:29:42.020Z,-5.10
2023-03-20T02:32:40.557Z,-5.16
2023-03-20T02:35:57.856Z,-5.24
2023-03-20T02:38:53.936Z,-5.32
2023-03-20T02:41:30.409Z,-5.35
2023-03-20T02:44:11.807Z,-5.41
2023-03-20T02:46:52.867Z,-5.45
2023-03-20T02:49:38.339Z,-5.56
2023-03-20T02:52:17.215Z,-5.59
2023-03-20T02:55:01.629Z,-5.62
2023-03-20T02:57:46.333Z,-5.64
2023-03-20T03:00:22.015Z,-5.61
2023-03-20T03:02:58.568Z,-5.60
2023-03-20T03:05:34.255Z,-5.83
2023-03-20T03:08:13.490Z,-5.65
2023-03-20T03:10:47.656Z,-5.68
2023-03-20T03:13:28.689Z,-5.76
2023-03-20T03:16:05.170Z,-5.83
2023-03-20T03:18:37.562Z,-5.85
2023-03-20T03:21:09.569Z,-5.90
2023-03-20T03:23:49.553Z,-5.88
2023-03-20T03:26:27.260Z,-5.92
2023-03-20T03:29:02.521Z,-5.95
2023-03-20T03:34:26.497Z,-5.94
2023-03-20T03:37:01.941Z,-5.89
2023-03-20T03:39:39.157Z,-5.86
2023-03-20T03:42:21.404Z,-6.04
2023-03-20T03:45:02.954Z,-5.98
2023-03-20T03:47:34.419Z,-5.85
2023-03-20T03:50:07.437Z,-5.91
2023-03-20T03:52:39.720Z,-5.84
2023-03-20T03:55:13.458Z,-5.79
2023-03-20T03:58:13.672Z,-5.55
2023-03-20T04:00:45.872Z,-5.38
2023-03-20T04:03:15.890Z,-5.13
2023-03-20T04:05:47.999Z,-4.97
2023-03-20T04:08:22.464Z,-4.84
2023-03-20T04:10:51.839Z,-4.76
2023-03-20T04:13:22.932Z,-4.71
2023-03-20T04:15:57.198Z,-4.64
2023-03-20T04:18:29.022Z,-4.57
2023-03-20T04:23:32.995Z,-4.46
2023-03-20T04:26:03.634Z,-4.34
2023-03-20T04:28:40.700Z,-4.20
2023-03-20T04:31:28.450Z,-4.04
2023-03-20T04:34:09.764Z,-3.99
2023-03-20T04:36:53.347Z,-3.93
2023-03-20T04:39:31.258Z,-3.81
2023-03-20T04:42:00.370Z,-3.62
2023-03-20T04:44:37.491Z,-3.42
2023-03-20T04:47:06.797Z,-3.16
2023-03-20T04:49:39.161Z,-2.97
2023-03-20T04:52:23.767Z,-2.84
2023-03-20T04:57:33.362Z,-2.48
2023-03-20T05:00:06.112Z,-2.14
2023-03-20T05:02:35.605Z,-1.72
2023-03-20T05:05:05.278Z,-1.37
2023-03-20T05:07:42.952Z,-0.67
2023-03-20T05:10:17.495Z,-0.51
2023-03-20T05:13:04.738Z,-0.19
2023-03-20T05:16:09.342Z,-0.08
2023-03-20T05:18:45.109Z,0.05
2023-03-20T05:21:32.638Z,0.36
2023-03-20T05:24:34.478Z,0.83
2023-03-20T05:27:23.997Z,1.35
2023-03-20T05:30:06.191Z,1.92
2023-03-20T05:32:51.769Z,2.55
2023-03-20T05:35:44.289Z,2.91
2023-03-20T05:38:32.393Z,3.18
2023-03-20T05:41:34.004Z,3.42
2023-03-20T05:44:31.226Z,3.56
2023-03-20T05:47:39.018Z,3.62
2023-03-20T05:50:28.755Z,3.90
2023-03-20T05:53:09.046Z,3.90
2023-03-20T05:56:00.968Z,4.01
2023-03-20T06:01:52.182Z,3.91
2023-03-20T06:04:31.400Z,3.61
2023-03-20T06:07:25.215Z,3.49
2023-03-20T06:10:16.944Z,3.25
2023-03-20T06:12:46.225Z,3.21
2023-03-20T06:15:18.700Z,3.20
2023-03-20T06:17:54.773Z,3.34
2023-03-20T06:20:24.318Z,3.54
2023-03-20T06:23:00.636Z,3.80
2023-03-20T06:25:31.252Z,3.97
2023-03-20T06:28:01.677Z,4.04
2023-03-20T06:30:31.097Z,4.17
2023-03-20T06:33:00.496Z,4.39
2023-03-20T06:35:39.254Z,4.48
2023-03-20T06:38:21.045Z,4.57
2023-03-20T06:40:55.816Z,4.57
2023-03-20T06:43:25.589Z,4.69
2023-03-20T06:45:55.940Z,4.72
2023-03-20T06:48:28.490Z,4.80
2023-03-20T06:50:58.011Z,4.71
2023-03-20T06:53:36.216Z,4.75
2023-03-20T06:56:17.942Z,4.81
2023-03-20T06:58:50.658Z,4.88
2023-03-20T07:01:20.753Z,4.94
2023-03-20T07:03:50.080Z,4.99
2023-03-20T07:06:29.342Z,5.03
2023-03-20T07:09:01.059Z,5.07
2023-03-20T07:14:05.837Z,5.15
2023-03-20T07:16:49.020Z,5.30
2023-03-20T07:19:19.204Z,5.41
2023-03-20T07:22:03.619Z,5.51
2023-03-20T07:24:40.976Z,5.74
2023-03-20T07:27:15.330Z,5.78
2023-03-20T07:29:46.247Z,5.84
2023-03-20T07:32:21.782Z,6.03
2023-03-20T07:34:57.551Z,6.23
2023-03-20T07:37:32.511Z,6.39
2023-03-20T07:40:08.708Z,6.71
2023-03-20T07:43:10.287Z,6.91
2023-03-20T07:45:51.488Z,6.97
2023-03-20T07:48:25.725Z,6.94
2023-03-20T07:50:55.088Z,6.81
2023-03-20T07:53:24.400Z,6.69
2023-03-20T07:55:56.026Z,6.27
2023-03-20T07:58:25.182Z,6.19
2023-03-20T08:00:54.292Z,6.16
2023-03-20T08:03:23.519Z,6.17
2023-03-20T08:05:52.822Z,6.21
2023-03-20T08:08:22.483Z,6.01
2023-03-20T08:10:51.609Z,5.83
2023-03-20T08:13:22.660Z,5.80
2023-03-20T08:15:57.236Z,5.88
2023-03-20T08:18:32.247Z,5.97
2023-03-20T08:21:06.915Z,5.91
2023-03-20T08:23:36.140Z,5.65
2023-03-20T08:26:05.445Z,5.70
2023-03-20T08:28:47.801Z,5.84
2023-03-20T08:31:23.420Z,5.90
2023-03-20T08:33:52.701Z,6.08
2023-03-20T08:36:22.121Z,6.21
2023-03-20T08:38:56.668Z,6.46
2023-03-20T08:41:25.628Z,6.61
2023-03-20T08:44:01.777Z,6.78
2023-03-20T08:46:31.335Z,6.76
2023-03-20T08:49:00.660Z,6.65
2023-03-20T08:51:35.183Z,6.59
2023-03-20T08:54:04.310Z,6.49
2023-03-20T08:56:33.432Z,6.29
2023-03-20T08:59:04.609Z,6.20
2023-03-20T09:01:49.800Z,6.19
2023-03-20T09:06:54.907Z,6.08
2023-03-20T09:09:28.875Z,5.70
2023-03-20T09:12:04.675Z,5.81
2023-03-20T09:14:35.983Z,5.74
2023-03-20T09:17:10.737Z,5.64
2023-03-20T09:19:43.037Z,5.67
2023-03-20T09:22:14.600Z,5.55
2023-03-20T09:24:48.921Z,5.56
2023-03-20T09:27:18.115Z,5.68
2023-03-20T09:29:49.495Z,5.85
2023-03-20T09:34:56.040Z,6.12
2023-03-20T09:37:25.193Z,6.09
2023-03-20T09:39:59.377Z,6.13
2023-03-20T09:42:41.633Z,6.16
2023-03-20T09:45:25.886Z,6.19
2023-03-20T09:48:04.361Z,6.27
2023-03-20T09:50:38.290Z,6.38
2023-03-20T09:53:13.145Z,6.33
2023-03-20T09:58:25.507Z,6.23
2023-03-20T10:01:00.049Z,6.09
2023-03-20T10:03:34.423Z,6.07
2023-03-20T10:06:14.308Z,5.91
2023-03-20T10:08:43.929Z,5.99
2023-03-20T10:14:26.805Z,5.85
2023-03-20T10:17:16.474Z,5.70
2023-03-20T10:19:47.696Z,5.84
2023-03-20T10:22:25.542Z,5.83
2023-03-20T10:25:01.037Z,5.84
2023-03-20T10:27:36.600Z,5.80
2023-03-20T10:30:23.711Z,5.67
2023-03-20T10:33:09.846Z,6.08
2023-03-20T10:35:44.723Z,6.23
2023-03-20T10:38:28.745Z,6.37
2023-03-20T10:40:59.986Z,6.37
2023-03-20T10:43:42.438Z,6.41
2023-03-20T10:46:15.912Z,6.45
2023-03-20T10:48:51.930Z,6.48
2023-03-20T10:51:24.251Z,6.56
2023-03-20T10:53:56.776Z,6.56
2023-03-20T10:56:32.967Z,6.80
2023-03-20T10:59:08.742Z,6.92
2023-03-20T11:01:44.585Z,6.95
2023-03-20T11:04:32.838Z,7.04
2023-03-20T11:07:18.272Z,7.07
2023-03-20T11:09:48.379Z,7.15
2023-03-20T11:12:21.784Z,7.16
2023-03-20T11:15:02.650Z,7.12
2023-03-20T11:17:32.303Z,7.06
2023-03-20T11:20:13.912Z,7.02
2023-03-20T11:22:43.554Z,7.00
2023-03-20T11:25:25.785Z,6.88
2023-03-20T11:28:21.208Z,6.73
2023-03-20T11:31:07.787Z,6.68
2023-03-20T11:33:51.691Z,6.46
2023-03-20T11:36:41.995Z,6.52
2023-03-20T11:39:26.800Z,6.41
2023-03-20T11:42:01.562Z,6.34
2023-03-20T11:44:33.724Z,6.27
2023-03-20T11:47:06.705Z,6.21
2023-03-20T11:49:49.055Z,6.16
2023-03-20T11:52:38.624Z,5.92
2023-03-20T11:55:24.280Z,6.18
2023-03-20T11:57:58.256Z,6.15
2023-03-20T12:00:39.457Z,6.15
2023-03-20T12:03:46.546Z,6.11
2023-03-20T12:06:21.579Z,6.13
2023-03-20T12:09:07.342Z,5.95
2023-03-20T12:11:47.179Z,6.10
2023-03-20T12:14:26.754Z,6.19
2023-03-20T12:17:02.672Z,6.20
2023-03-20T12:19:39.132Z,6.20
2023-03-20T12:22:20.208Z,6.20
2023-03-20T12:25:00.122Z,6.19
2023-03-20T12:27:34.681Z,6.24
2023-03-20T12:30:08.643Z,6.25
2023-03-20T12:32:49.096Z,6.20
2023-03-20T12:35:21.978Z,6.14
2023-03-20T12:37:56.341Z,6.17
2023-03-20T12:40:35.705Z,6.14
2023-03-20T12:43:13.257Z,6.11
2023-03-20T12:52:58.142Z,5.87
2023-03-20T12:55:35.918Z,5.76
2023-03-20T12:58:25.690Z,5.79
2023-03-20T13:01:04.248Z,5.86
2023-03-20T13:03:57.210Z,5.91
2023-03-20T13:06:39.511Z,5.97
2023-03-20T13:09:47.572Z,5.99
2023-03-20T13:12:38.421Z,5.97
2023-03-20T13:15:22.204Z,5.97
2023-03-20T13:17:57.983Z,5.80
2023-03-20T13:20:36.120Z,5.88
2023-03-20T13:26:19.094Z,5.74
2023-03-20T13:28:56.495Z,5.80
2023-03-20T13:31:41.508Z,5.80
2023-03-20T13:34:21.235Z,5.80
2023-03-20T13:37:23.022Z,5.83
2023-03-20T13:40:05.890Z,5.72
2023-03-20T13:42:44.216Z,5.80
2023-03-20T13:45:25.959Z,5.75
2023-03-20T13:48:01.712Z,5.76
2023-03-20T13:50:43.449Z,5.74
2023-03-20T13:53:25.421Z,5.78
2023-03-20T13:59:06.816Z,5.71
2023-03-20T14:01:50.489Z,5.72
2023-03-20T14:09:39.243Z,5.68
2023-03-20T14:12:11.138Z,5.71
2023-03-20T14:14:52.017Z,5.65
2023-03-20T14:17:29.753Z,5.56
2023-03-20T14:20:15.508Z,5.55
2023-03-20T14:22:44.975Z,5.49
2023-03-20T14:25:24.908Z,5.48
2023-03-20T14:27:59.778Z,5.43
2023-03-20T14:30:56.586Z,5.40
2023-03-20T14:33:31.814Z,5.30
2023-03-20T14:36:27.757Z,5.29
2023-03-20T14:39:21.526Z,5.23
2023-03-20T14:42:13.032Z,5.11
2023-03-20T14:45:09.759Z,5.12
2023-03-20T14:47:59.761Z,5.03
2023-03-20T14:50:32.285Z,4.98
2023-03-20T14:53:11.058Z,4.87
2023-03-20T14:55:53.454Z,4.89
2023-03-20T14:58:43.285Z,4.69
2023-03-20T15:04:10.134Z,4.67
2023-03-20T15:06:49.081Z,4.67
2023-03-20T15:09:25.878Z,4.59
2023-03-20T15:11:59.257Z,4.45
2023-03-20T15:14:31.407Z,4.38
2023-03-20T15:17:01.751Z,4.30
2023-03-20T15:22:18.344Z,4.14
2023-03-20T15:25:00.351Z,4.04
2023-03-20T15:27:31.889Z,4.06
2023-03-20T15:30:07.162Z,3.94
2023-03-20T15:32:37.288Z,3.89
2023-03-20T15:35:10.546Z,3.86
2023-03-20T15:37:40.284Z,3.82
2023-03-20T15:40:20.292Z,3.80
2023-03-20T15:42:56.188Z,3.65
2023-03-20T15:45:33.904Z,3.76
2023-03-20T15:48:04.038Z,3.67
2023-03-20T15:53:20.912Z,3.53
2023-03-20T15:56:04.349Z,3.13
2023-03-20T15:58:42.416Z,3.40
2023-03-20T16:01:21.479Z,3.29
2023-03-20T16:03:52.387Z,3.38
2023-03-20T16:06:26.388Z,3.34
2023-03-20T16:09:00.235Z,3.39
2023-03-20T16:11:41.448Z,3.38
2023-03-20T16:14:16.296Z,3.35
2023-03-20T16:16:48.941Z,3.28
2023-03-20T16:19:25.806Z,3.25
2023-03-20T16:22:05.148Z,3.06
2023-03-20T16:24:41.661Z,3.21
2023-03-20T16:27:28.462Z,3.18
2023-03-20T16:29:58.668Z,3.13
2023-03-20T16:32:38.226Z,3.17
2023-03-20T16:35:19.959Z,3.08
2023-03-20T16:37:56.115Z,3.03
2023-03-20T16:40:33.396Z,2.97
2023-03-20T16:43:16.857Z,2.87
2023-03-20T16:45:48.513Z,2.76
2023-03-20T16:48:28.930Z,2.79
2023-03-20T16:51:03.634Z,2.58
2023-03-20T16:53:42.872Z,2.66
2023-03-20T16:56:14.459Z,2.67
2023-03-20T16:58:50.307Z,2.63
2023-03-20T17:01:21.901Z,2.63
2023-03-20T17:03:58.497Z,2.60
2023-03-20T17:06:43.405Z,2.56
2023-03-20T17:09:25.145Z,2.54
2023-03-20T17:12:04.910Z,2.51
2023-03-20T17:14:34.615Z,2.47
2023-03-20T17:17:03.820Z,2.48
2023-03-20T17:19:34.892Z,2.48
2023-03-20T17:22:16.993Z,2.47
2023-03-20T17:24:48.219Z,2.30
2023-03-20T17:27:18.714Z,2.51
2023-03-20T17:29:48.986Z,2.34
2023-03-20T17:32:20.102Z,2.47
2023-03-20T17:34:49.321Z,2.45
2023-03-20T17:37:24.318Z,2.42
2023-03-20T17:40:00.278Z,2.39
2023-03-20T17:42:32.399Z,2.37
2023-03-20T17:47:44.836Z,2.17
2023-03-20T17:50:23.916Z,2.37
2023-03-20T17:52:53.374Z,2.41
2023-03-20T17:55:29.707Z,2.39
2023-03-20T17:57:58.917Z,2.20
2023-03-20T18:00:28.585Z,2.37
2023-03-20T18:02:57.756Z,2.34
2023-03-20T18:05:28.214Z,2.33
2023-03-20T18:08:00.451Z,2.36
2023-03-20T18:10:38.533Z,2.35
2023-03-20T18:13:07.884Z,2.33
2023-03-20T18:15:38.163Z,2.31
2023-03-20T18:18:17.917Z,2.34
2023-03-20T18:20:47.674Z,2.26
2023-03-20T18:23:17.176Z,2.21
2023-03-20T18:25:48.453Z,2.30
2023-03-20T18:28:22.336Z,2.22
2023-03-20T18:30:52.908Z,2.34
2023-03-20T18:33:26.236Z,2.34
2023-03-20T18:36:00.490Z,2.37
2023-03-20T18:38:30.293Z,2.38
2023-03-20T18:41:07.294Z,2.39
2023-03-20T18:43:36.532Z,2.39
2023-03-20T18:46:17.940Z,2.44
2023-03-20T18:48:47.611Z,2.45
2023-03-20T18:51:17.151Z,2.26
2023-03-20T18:53:51.422Z,2.44
2023-03-20T18:56:24.710Z,2.53
2023-03-20T18:58:58.970Z,2.54
2023-03-20T19:01:28.468Z,2.55
2023-03-20T19:03:57.709Z,2.49
2023-03-20T19:06:28.032Z,2.52
2023-03-20T19:08:57.599Z,2.51
2023-03-20T19:11:38.755Z,2.36
2023-03-20T19:14:08.087Z,2.50
2023-03-20T19:16:38.444Z,2.51
2023-03-20T19:19:16.948Z,2.51
2023-03-20T19:21:51.281Z,2.21
2023-03-20T19:24:26.293Z,2.14
2023-03-20T19:26:59.959Z,2.54
2023-03-20T19:29:29.341Z,2.53
2023-03-20T19:31:59.401Z,2.56
2023-03-20T19:35:10.942Z,2.57
2023-03-20T19:37:22.717Z,2.54
2023-03-20T19:39:51.934Z,2.51
2023-03-20T19:42:53.025Z,2.62
2023-03-20T19:45:14.091Z,2.67
2023-03-20T19:47:43.344Z,2.58
2023-03-20T19:50:33.396Z,2.67
2023-03-20T19:53:09.025Z,2.78
2023-03-20T19:55:39.512Z,2.78
2023-03-20T19:58:16.749Z,2.89
2023-03-20T20:00:57.667Z,2.87
2023-03-20T20:03:28.668Z,2.92
2023-03-20T20:05:59.434Z,2.56
2023-03-20T20:11:15.110Z,2.71
2023-03-20T20:16:36.436Z,3.05
2023-03-20T20:19:05.976Z,2.77
2023-03-20T20:24:24.841Z,2.90
2023-03-20T20:27:14.714Z,3.06
2023-03-20T20:29:58.112Z,3.06
2023-03-20T20:32:29.461Z,2.98
2023-03-20T20:38:30.746Z,2.97
2023-03-20T20:40:48.669Z,2.97
2023-03-20T20:43:47.364Z,2.90
2023-03-20T20:46:14.467Z,2.82
2023-03-20T20:48:43.643Z,2.89
2023-03-20T20:51:12.779Z,2.95
2023-03-20T20:53:41.987Z,2.94
2023-03-20T20:56:11.116Z,2.96
2023-03-20T20:58:40.188Z,2.97
2023-03-20T21:01:09.279Z,3.02
2023-03-20T21:03:40.538Z,3.04
2023-03-20T21:06:09.902Z,3.07
2023-03-20T21:08:44.109Z,3.10
2023-03-20T21:11:14.394Z,3.13
2023-03-20T21:13:43.752Z,2.85
2023-03-20T21:16:14.300Z,3.22
2023-03-20T21:18:46.341Z,3.24
2023-03-20T21:21:21.509Z,3.29
2023-03-20T21:23:51.251Z,3.27
2023-03-20T21:26:20.822Z,3.28
2023-03-20T21:28:50.102Z,3.34
2023-03-20T21:31:30.878Z,3.36
2023-03-20T21:34:04.676Z,3.33
2023-03-20T21:36:35.125Z,3.31
2023-03-20T21:39:09.198Z,3.12
2023-03-20T21:41:44.052Z,3.30
2023-03-20T21:44:18.124Z,2.96
2023-03-20T21:47:38.094Z,3.29
2023-03-20T21:53:16.976Z,3.26
2023-03-20T21:59:03.629Z,3.21
2023-03-20T22:05:01.417Z,3.23
2023-03-20T22:10:46.094Z,3.22
2023-03-20T22:13:39.082Z,3.24
2023-03-20T22:16:36.595Z,3.15
2023-03-20T22:22:05.351Z,3.27
2023-03-20T22:33:41.364Z,3.26
2023-03-20T22:36:36.036Z,3.31
2023-03-20T22:39:27.078Z,3.25
2023-03-20T22:42:19.944Z,3.36
2023-03-20T22:47:27.887Z,3.40
2023-03-20T22:49:57.345Z,3.40
2023-03-20T22:52:38.089Z,3.42
2023-03-20T22:55:14.952Z,3.44
2023-03-20T22:58:03.502Z,3.45
2023-03-20T23:00:35.505Z,3.45
2023-03-20T23:03:22.264Z,3.44
2023-03-20T23:05:54.846Z,3.46
2023-03-20T23:08:25.591Z,3.43
2023-03-20T23:11:09.549Z,3.45
2023-03-20T23:13:48.287Z,3.41
2023-03-20T23:16:17.120Z,3.57
2023-03-20T23:21:26.375Z,3.42
2023-03-20T23:23:58.561Z,3.40
2023-03-20T23:26:27.840Z,3.27
2023-03-20T23:29:01.225Z,3.37
2023-03-20T23:31:30.580Z,3.36
2023-03-20T23:34:00.169Z,3.38
2023-03-20T23:36:40.094Z,3.39
2023-03-20T23:39:11.202Z,3.36
2023-03-20T23:44:39.520Z,3.31
2023-03-20T23:47:21.214Z,3.43
2023-03-20T23:49:51.262Z,3.45
2023-03-20T23:52:20.456Z,3.43
2023-03-20T23:54:49.518Z,3.45
2023-03-20T23:57:23.704Z,3.42
2023-03-20T23:59:54.931Z,3.39
